Time;durP1;ratioP1;P1;durP2;ratioP2;P2;SDS_P1;SDS_P2;PMS_P1;PMS_P2;Temp;Humidity;BMP_temperature;BMP_pressure;BME280_temperature;BME280_humidity;BME280_pressure;Samples;Min_cycle;Max_cycle;Signal;HPM_P1;HPM_P2
2022/04/11 00:01:30;;;;;;;;;;;;;;;1.94;47.67;93036.22;2057552;69;20045;-67
2022/04/11 00:03:56;;;;;;;;;;;;;;;1.76;47.94;93037.22;2058330;69;20050;-67
2022/04/11 00:06:21;;;;;;;;;;;;;;;1.97;46.66;93032.34;2057971;69;20049;-67
2022/04/11 00:08:46;;;;;;;;;;;;;;;1.95;48.02;93029.38;2057690;69;20089;-69
2022/04/11 00:11:12;;;;;;;;;;;;;;;1.90;48.96;93030.25;2058248;69;20046;-69
2022/04/11 00:13:38;;;;;;;;;;;;;;;1.73;48.69;93027.19;2058234;69;20525;-69
2022/04/11 00:16:03;;;;;;;;;;;;;;;1.58;49.32;93024.34;2057779;69;20062;-68
2022/04/11 00:18:29;;;;;;;;;;;;;;;1.68;50.27;93030.88;2058042;69;20542;-68
2022/04/11 00:20:54;;;;;;;;;;;;;;;1.64;50.01;93024.91;2058138;69;20433;-68
2022/04/11 00:23:20;;;;;;;;;;;;;;;1.72;48.96;93026.47;2057439;69;20089;-68
2022/04/11 00:25:45;;;;;;;;;;;;;;;1.77;48.67;93033.88;2058088;69;20538;-68
2022/04/11 00:28:11;;;;;;;;;;;;;;;1.74;48.93;93034.22;2057936;69;20120;-69
2022/04/11 00:30:36;;;;;;;;;;;;;;;1.76;48.64;93040.72;2057721;69;20053;-68
2022/04/11 00:33:02;;;;;;;;;;;;;;;1.45;50.06;93039.03;2057605;69;20052;-67
2022/04/11 00:35:27;;;;;;;;;;;;;;;1.52;49.57;93038.34;2057815;69;20545;-68
2022/04/11 00:37:53;;;;;;;;;;;;;;;1.53;49.44;93037.06;2057718;69;20145;-69
2022/04/11 00:40:19;;;;;;;;;;;;;;;1.61;49.28;93037.13;2058522;69;20050;-69
2022/04/11 00:42:47;;;;;;;;;;;;;;;1.47;48.85;93039.25;2057851;69;20050;-69
2022/04/11 00:45:13;;;;;;;;;;;;;;;1.63;49.15;93034.53;2058362;69;20137;-69
2022/04/11 00:47:38;;;;;;;;;;;;;;;1.58;49.66;93035.44;2057648;69;20093;-69
2022/04/11 00:50:08;;;;;;;;;;;;;;;1.56;48.09;93040.75;2057864;69;20086;-69
2022/04/11 00:52:36;;;;;;;;;;;;;;;1.48;49.06;93035.19;2058045;69;20050;-68
2022/04/11 00:55:02;;;;;;;;;;;;;;;1.57;49.52;93034.69;2056533;69;20482;-68
2022/04/11 00:57:28;;;;;;;;;;;;;;;1.49;49.37;93037.41;2058074;69;20153;-69
2022/04/11 00:59:54;;;;;;;;;;;;;;;1.62;48.93;93035.84;2057937;69;20431;-70
2022/04/11 01:02:20;;;;;;;;;;;;;;;1.51;48.44;93037.63;2057684;69;20145;-68
2022/04/11 01:04:45;;;;;;;;;;;;;;;1.52;48.96;93039.09;2058173;69;20477;-69
2022/04/11 01:07:11;;;;;;;;;;;;;;;1.42;49.78;93042.88;2057713;69;20085;-71
2022/04/11 01:09:37;;;;;;;;;;;;;;;1.36;49.34;93045.81;2058212;69;20124;-70
2022/04/11 01:12:02;;;;;;;;;;;;;;;1.34;48.87;93051.16;2057793;69;20054;-69
2022/04/11 01:14:28;;;;;;;;;;;;;;;1.23;49.77;93049.41;2057798;69;20089;-69
2022/04/11 01:16:57;;;;;;;;;;;;;;;1.30;50.32;93050.75;2058008;69;20061;-69
2022/04/11 01:19:23;;;;;;;;;;;;;;;1.30;49.86;93050.03;2057798;69;20145;-69
2022/04/11 01:21:49;;;;;;;;;;;;;;;1.39;49.04;93055.09;2057376;69;20137;-69
2022/04/11 01:24:17;;;;;;;;;;;;;;;1.23;49.69;93049.41;2057778;69;20494;-69
2022/04/11 01:26:44;;;;;;;;;;;;;;;1.32;49.92;93056.50;2057717;69;20435;-68
2022/04/11 01:29:11;;;;;;;;;;;;;;;1.26;49.59;93055.91;2058226;69;20514;-69
2022/04/11 01:31:37;;;;;;;;;;;;;;;1.27;49.19;93052.56;2057383;69;20394;-69
2022/04/11 01:34:02;;;;;;;;;;;;;;;1.28;49.35;93050.53;2057650;69;20089;-69
2022/04/11 01:36:28;;;;;;;;;;;;;;;1.31;49.40;93046.69;2053390;69;20054;-68
2022/04/11 01:38:53;;;;;;;;;;;;;;;1.29;49.93;93051.31;2057421;69;20104;-69
2022/04/11 01:41:22;;;;;;;;;;;;;;;1.17;50.19;93050.81;2057794;69;20164;-69
2022/04/11 01:43:47;;;;;;;;;;;;;;;1.10;49.94;93043.94;2058073;69;20101;-69
2022/04/11 01:46:13;;;;;;;;;;;;;;;1.06;49.75;93046.31;2057854;69;20043;-69
2022/04/11 01:48:43;;;;;;;;;;;;;;;1.09;50.09;93036.88;2057747;69;20060;-69
2022/04/11 01:51:08;;;;;;;;;;;;;;;1.09;49.93;93028.56;2058296;69;20054;-69
2022/04/11 01:53:34;;;;;;;;;;;;;;;1.01;50.09;93030.56;2057816;69;20478;-69
2022/04/11 01:56:00;;;;;;;;;;;;;;;1.10;49.96;93040.41;2057217;69;20045;-69
2022/04/11 01:58:27;;;;;;;;;;;;;;;0.87;51.23;93032.66;2057614;69;20182;-69
2022/04/11 02:00:55;;;;;;;;;;;;;;;1.01;50.13;93030.56;2057318;69;20155;-69
2022/04/11 02:03:21;;;;;;;;;;;;;;;0.88;50.38;93031.34;2057776;69;20493;-70
2022/04/11 02:05:47;;;;;;;;;;;;;;;1.04;49.01;93029.44;2057363;69;20145;-69
2022/04/11 02:08:13;;;;;;;;;;;;;;;1.18;47.53;93036.41;2057640;69;20052;-72
2022/04/11 02:10:39;;;;;;;;;;;;;;;1.07;49.57;93030.41;2057798;69;20119;-69
2022/04/11 02:13:05;;;;;;;;;;;;;;;0.94;50.48;93022.91;2057575;69;20054;-69
2022/04/11 02:15:31;;;;;;;;;;;;;;;1.03;49.87;93025.19;2057543;69;20482;-69
2022/04/11 02:17:57;;;;;;;;;;;;;;;0.94;50.38;93025.66;2057435;69;20057;-69
2022/04/11 02:20:23;;;;;;;;;;;;;;;0.91;50.29;93018.44;2057707;69;20425;-70
2022/04/11 02:22:56;;;;;;;;;;;;;;;0.86;50.83;93019.31;2058340;69;20066;-69
2022/04/11 02:25:25;;;;;;;;;;;;;;;0.66;51.33;93027.06;2058324;69;20141;-70
2022/04/11 02:27:50;;;;;;;;;;;;;;;0.71;51.70;93017.88;2055239;69;20076;-70
2022/04/11 02:30:17;;;;;;;;;;;;;;;0.75;52.14;93021.06;2058076;69;20478;-69
2022/04/11 02:32:42;;;;;;;;;;;;;;;0.89;50.48;93012.69;2058792;69;20049;-70
2022/04/11 02:35:08;;;;;;;;;;;;;;;0.76;51.46;93016.25;2058923;69;20072;-69
2022/04/11 02:37:34;;;;;;;;;;;;;;;0.82;51.25;93014.09;2055957;69;20572;-69
2022/04/11 02:40:01;;;;;;;;;;;;;;;0.79;50.23;93009.66;2057668;69;20081;-69
2022/04/11 02:42:28;;;;;;;;;;;;;;;0.81;50.56;93012.59;2057666;69;20057;-69
2022/04/11 02:45:00;;;;;;;;;;;;;;;0.77;51.17;93012.19;2060484;69;20046;-69
2022/04/11 02:47:26;;;;;;;;;;;;;;;0.74;51.65;93007.75;2058067;69;20488;-70
2022/04/11 02:49:52;;;;;;;;;;;;;;;0.84;50.51;93013.56;2057891;69;20418;-69
2022/04/11 02:52:35;;;;;;;;;;;;;;;0.82;50.07;93005.78;2057606;69;20488;-69
2022/04/11 02:55:01;;;;;;;;;;;;;;;0.88;50.92;93005.66;2058611;69;20058;-69
2022/04/11 02:57:26;;;;;;;;;;;;;;;0.80;51.32;93000.03;2058126;69;20152;-70
2022/04/11 02:59:52;;;;;;;;;;;;;;;0.64;52.00;93004.72;2057857;69;20064;-70
2022/04/11 03:02:18;;;;;;;;;;;;;;;0.68;51.40;93005.09;2058058;69;20069;-72
2022/04/11 03:04:43;;;;;;;;;;;;;;;0.66;50.87;93002.13;2058823;69;20057;-69
2022/04/11 03:07:17;;;;;;;;;;;;;;;0.47;52.65;93005.09;2057159;69;20050;-70
2022/04/11 03:09:43;;;;;;;;;;;;;;;0.59;52.00;93005.56;2058215;69;20492;-69
2022/04/11 03:12:09;;;;;;;;;;;;;;;0.67;51.59;92994.56;2058019;69;20061;-69
2022/04/11 03:14:34;;;;;;;;;;;;;;;0.63;51.93;92994.16;2057690;69;20462;-70
2022/04/11 03:17:03;;;;;;;;;;;;;;;0.72;51.81;92994.41;2058145;69;20470;-69
2022/04/11 03:19:31;;;;;;;;;;;;;;;0.69;50.99;92992.00;2058156;69;20058;-70
2022/04/11 03:21:58;;;;;;;;;;;;;;;0.62;52.88;92989.91;2057566;69;20042;-68
2022/04/11 03:24:24;;;;;;;;;;;;;;;0.58;51.75;92995.75;2057525;69;20140;-70
2022/04/11 03:26:50;;;;;;;;;;;;;;;0.52;52.51;92986.09;2058001;69;20486;-70
2022/04/11 03:29:22;;;;;;;;;;;;;;;0.63;52.68;92985.84;2058237;69;20139;-69
2022/04/11 03:31:48;;;;;;;;;;;;;;;0.63;53.22;92986.56;2057493;69;20604;-68
2022/04/11 03:34:15;;;;;;;;;;;;;;;0.68;51.93;92993.28;2056778;69;20478;-69
2022/04/11 03:36:41;;;;;;;;;;;;;;;0.59;51.81;92996.50;2058518;69;20050;-69
2022/04/11 03:39:07;;;;;;;;;;;;;;;0.58;50.78;92992.25;2056927;69;20066;-69
2022/04/11 03:41:35;;;;;;;;;;;;;;;0.57;53.05;92991.50;2055322;69;20053;-69
2022/04/11 03:44:11;;;;;;;;;;;;;;;0.46;53.45;92994.53;2058604;69;20061;-69
2022/04/11 03:46:38;;;;;;;;;;;;;;;0.37;54.22;92997.78;2058100;69;20046;-69
2022/04/11 03:49:04;;;;;;;;;;;;;;;0.42;53.78;92988.59;2057472;69;20050;-70
2022/04/11 03:51:30;;;;;;;;;;;;;;;0.38;53.48;92988.19;2058563;69;20107;-71
2022/04/11 03:53:55;;;;;;;;;;;;;;;0.51;52.51;92982.59;2057243;69;20076;-69
2022/04/11 03:56:22;;;;;;;;;;;;;;;0.60;52.03;92981.38;2058028;69;20139;-70
2022/04/11 03:58:47;;;;;;;;;;;;;;;0.38;53.74;92980.59;2058641;69;20480;-70
2022/04/11 04:01:13;;;;;;;;;;;;;;;0.53;52.23;92968.94;2057909;69;20050;-69
2022/04/11 04:03:40;;;;;;;;;;;;;;;0.47;52.79;92976.63;2057769;69;20446;-69
2022/04/11 04:06:09;;;;;;;;;;;;;;;0.51;53.44;92968.75;2057762;69;20148;-69
2022/04/11 04:08:39;;;;;;;;;;;;;;;0.50;52.42;92970.78;2055729;69;20466;-69
2022/04/11 04:11:12;;;;;;;;;;;;;;;0.54;52.61;92961.34;2058088;69;20078;-69
2022/04/11 04:13:43;;;;;;;;;;;;;;;0.52;53.89;92956.38;2057906;69;20128;-70
2022/04/11 04:16:08;;;;;;;;;;;;;;;0.52;52.80;92958.41;2057911;69;20547;-70
2022/04/11 04:18:36;;;;;;;;;;;;;;;0.65;52.20;92956.31;2058022;69;20433;-70
2022/04/11 04:21:04;;;;;;;;;;;;;;;0.29;54.66;92950.59;2057340;69;20074;-70
2022/04/11 04:23:29;;;;;;;;;;;;;;;0.42;52.84;92941.50;2053943;69;20477;-70
2022/04/11 04:25:56;;;;;;;;;;;;;;;0.45;53.82;92951.50;2054885;69;20137;-69
2022/04/11 04:28:23;;;;;;;;;;;;;;;0.50;53.35;92943.06;2057650;69;20505;-69
2022/04/11 04:30:50;;;;;;;;;;;;;;;0.45;53.42;92943.19;2057801;69;20445;-70
2022/04/11 04:33:16;;;;;;;;;;;;;;;0.48;54.19;92942.09;2058070;69;20054;-71
2022/04/11 04:35:45;;;;;;;;;;;;;;;0.41;53.78;92943.53;2057982;69;20042;-70
2022/04/11 04:38:11;;;;;;;;;;;;;;;0.43;53.90;92942.97;2057323;69;20046;-70
2022/04/11 04:40:46;;;;;;;;;;;;;;;0.55;52.63;92940.69;2057532;69;20482;-69
2022/04/11 04:43:15;;;;;;;;;;;;;;;0.54;52.27;92930.88;2056588;69;20086;-69
2022/04/11 04:45:40;;;;;;;;;;;;;;;0.58;52.29;92926.50;2057516;69;20113;-68
2022/04/11 04:48:21;;;;;;;;;;;;;;;0.43;53.80;92929.88;2058646;69;20053;-68
2022/04/11 04:50:46;;;;;;;;;;;;;;;0.49;53.34;92924.94;2058033;69;20080;-70
2022/04/11 04:53:14;;;;;;;;;;;;;;;0.42;53.83;92924.88;2057318;69;20084;-69
2022/04/11 04:55:40;;;;;;;;;;;;;;;0.44;53.56;92927.84;2057155;69;20058;-69
2022/04/11 04:58:08;;;;;;;;;;;;;;;0.44;52.84;92936.16;2057210;69;20455;-69
2022/04/11 05:00:33;;;;;;;;;;;;;;;0.44;53.84;92931.34;2057900;69;20046;-69
2022/04/11 05:02:59;;;;;;;;;;;;;;;0.43;54.37;92920.81;2057279;69;20070;-69
2022/04/11 05:05:25;;;;;;;;;;;;;;;0.51;54.60;92921.66;2057930;69;20056;-69
2022/04/11 05:07:55;;;;;;;;;;;;;;;0.62;53.32;92926.16;2057917;69;20042;-69
2022/04/11 05:10:24;;;;;;;;;;;;;;;0.68;52.69;92919.19;2057709;69;20066;-70
2022/04/11 05:12:51;;;;;;;;;;;;;;;0.44;55.19;92917.50;2057811;69;20156;-70
2022/04/11 05:15:17;;;;;;;;;;;;;;;0.48;54.19;92919.94;2057780;69;20050;-70
2022/04/11 05:17:48;;;;;;;;;;;;;;;0.50;55.17;92920.91;2056220;69;20145;-69
2022/04/11 05:20:15;;;;;;;;;;;;;;;0.40;56.02;92924.66;2057069;69;20082;-69
2022/04/11 05:22:41;;;;;;;;;;;;;;;0.48;55.14;92911.63;2055584;69;20090;-69
2022/04/11 05:25:07;;;;;;;;;;;;;;;0.41;55.22;92909.53;2057987;69;20120;-68
2022/04/11 05:27:33;;;;;;;;;;;;;;;0.52;54.83;92911.31;2057679;69;20498;-69
2022/04/11 05:29:58;;;;;;;;;;;;;;;0.49;56.28;92913.13;2058059;69;20093;-69
2022/04/11 05:32:24;;;;;;;;;;;;;;;0.52;55.11;92919.63;2057823;69;20081;-69
2022/04/11 05:34:49;;;;;;;;;;;;;;;0.60;55.33;92914.88;2057872;69;20486;-69
2022/04/11 05:37:15;;;;;;;;;;;;;;;0.65;53.68;92916.78;2057530;69;20042;-69
2022/04/11 05:39:41;;;;;;;;;;;;;;;0.73;53.79;92923.88;2058409;69;20050;-69
2022/04/11 05:42:07;;;;;;;;;;;;;;;0.59;54.19;92925.22;2056945;69;20579;-70
2022/04/11 05:44:35;;;;;;;;;;;;;;;0.64;53.85;92929.13;2054410;69;20054;-70
2022/04/11 05:47:00;;;;;;;;;;;;;;;0.63;54.22;92927.66;2057429;69;20080;-70
2022/04/11 05:49:37;;;;;;;;;;;;;;;0.61;55.48;92939.28;2057406;69;20137;-70
2022/04/11 05:52:04;;;;;;;;;;;;;;;0.66;54.95;92935.63;2057116;69;20485;-69
2022/04/11 05:54:30;;;;;;;;;;;;;;;0.70;55.62;92930.50;2058081;69;20494;-70
2022/04/11 05:56:56;;;;;;;;;;;;;;;0.88;54.75;92934.34;2058283;69;20060;-68
2022/04/11 05:59:23;;;;;;;;;;;;;;;0.84;55.41;92941.50;2057723;69;20046;-69
2022/04/11 06:01:48;;;;;;;;;;;;;;;0.93;55.41;92939.00;2058165;69;20070;-68
2022/04/11 06:04:14;;;;;;;;;;;;;;;1.12;54.15;92933.22;2058902;69;20089;-68
2022/04/11 06:06:39;;;;;;;;;;;;;;;1.26;52.37;92942.91;2058287;69;20054;-68
2022/04/11 06:09:05;;;;;;;;;;;;;;;1.38;52.99;92942.63;2057280;69;21135;-70
2022/04/11 06:11:32;;;;;;;;;;;;;;;1.29;54.67;92951.47;2058062;69;20086;-69
2022/04/11 06:13:58;;;;;;;;;;;;;;;1.41;53.88;92955.41;2058849;69;20364;-69
2022/04/11 06:16:23;;;;;;;;;;;;;;;1.51;52.77;92954.38;2058547;69;20179;-69
2022/04/11 06:18:49;;;;;;;;;;;;;;;1.47;54.66;92958.78;2056566;69;20054;-70
2022/04/11 06:21:15;;;;;;;;;;;;;;;1.46;54.76;92957.28;2055820;69;20394;-70
2022/04/11 06:23:40;;;;;;;;;;;;;;;1.46;55.08;92955.25;2057087;69;20432;-70
2022/04/11 06:26:06;;;;;;;;;;;;;;;1.53;54.64;92951.03;2058113;69;20482;-70
2022/04/11 06:28:36;;;;;;;;;;;;;;;1.51;55.55;92951.59;2058145;69;20052;-69
2022/04/11 06:31:02;;;;;;;;;;;;;;;1.26;55.82;92947.72;2057866;69;20050;-69
2022/04/11 06:33:30;;;;;;;;;;;;;;;1.62;54.58;92947.03;2057297;69;20085;-70
2022/04/11 06:35:55;;;;;;;;;;;;;;;1.65;53.99;92949.47;2058108;69;20529;-68
2022/04/11 06:38:22;;;;;;;;;;;;;;;1.89;51.14;92947.53;2057561;69;20049;-68
2022/04/11 06:40:49;;;;;;;;;;;;;;;1.90;52.64;92946.22;2058206;69;20081;-68
2022/04/11 06:43:15;;;;;;;;;;;;;;;1.97;52.59;92949.06;2058123;69;20050;-69
2022/04/11 06:45:50;;;;;;;;;;;;;;;2.04;50.01;92953.13;2057806;69;20109;-69
2022/04/11 06:48:19;;;;;;;;;;;;;;;2.19;52.32;92938.56;2057238;69;20054;-68
2022/04/11 06:50:44;;;;;;;;;;;;;;;2.47;50.72;92948.81;2057117;69;20061;-68
2022/04/11 06:53:10;;;;;;;;;;;;;;;2.82;52.65;92941.66;2058721;69;20052;-69
2022/04/11 06:55:35;;;;;;;;;;;;;;;3.23;50.98;92934.97;2058329;69;20116;-70
2022/04/11 06:58:01;;;;;;;;;;;;;;;3.52;49.61;92931.97;2057234;69;20057;-68
2022/04/11 07:00:27;;;;;;;;;;;;;;;3.68;49.66;92935.47;2058485;69;20076;-68
2022/04/11 07:02:52;;;;;;;;;;;;;;;4.24;48.26;92928.59;2058512;69;20470;-70
2022/04/11 07:05:18;;;;;;;;;;;;;;;4.37;48.96;92927.59;2058706;69;20721;-68
2022/04/11 07:07:43;;;;;;;;;;;;;;;4.16;48.96;92927.13;2058633;69;20054;-70
2022/04/11 07:10:09;;;;;;;;;;;;;;;4.76;45.56;92922.53;2058736;69;20120;-68
2022/04/11 07:12:39;;;;;;;;;;;;;;;5.14;47.45;92916.69;2058617;69;20062;-70
2022/04/11 07:15:05;;;;;;;;;;;;;;;5.87;45.19;92930.34;2058666;69;20149;-69
2022/04/11 07:17:31;;;;;;;;;;;;;;;6.82;42.39;92928.06;2058615;69;20256;-71
2022/04/11 07:19:57;;;;;;;;;;;;;;;6.20;42.04;92925.34;2058639;69;20099;-70
2022/04/11 07:22:22;;;;;;;;;;;;;;;6.24;43.68;92919.34;2058328;69;20120;-71
2022/04/11 07:24:48;;;;;;;;;;;;;;;6.69;42.93;92914.47;2058465;69;20557;-71
2022/04/11 07:27:13;;;;;;;;;;;;;;;6.58;41.17;92921.31;2058696;69;20046;-68
2022/04/11 07:29:39;;;;;;;;;;;;;;;8.12;40.97;92921.06;2058847;69;20050;-68
2022/04/11 07:32:04;;;;;;;;;;;;;;;7.37;40.71;92916.22;2058615;69;20142;-68
2022/04/11 07:34:30;;;;;;;;;;;;;;;7.73;40.19;92903.47;2058904;69;20088;-71
2022/04/11 07:36:55;;;;;;;;;;;;;;;7.94;39.71;92907.78;2058523;69;20548;-71
2022/04/11 07:39:23;;;;;;;;;;;;;;;8.11;39.69;92904.84;2058590;69;20118;-70
2022/04/11 07:41:49;;;;;;;;;;;;;;;8.38;38.60;92905.44;2058545;69;20151;-73
2022/04/11 07:44:14;;;;;;;;;;;;;;;8.63;40.45;92901.56;2058677;69;20065;-71
2022/04/11 07:46:40;;;;;;;;;;;;;;;9.34;37.36;92900.88;2058488;69;20409;-70
2022/04/11 07:49:05;;;;;;;;;;;;;;;9.01;37.51;92888.75;2058691;69;20142;-71
2022/04/11 07:51:31;;;;;;;;;;;;;;;9.45;36.66;92896.69;2058565;69;20046;-69
2022/04/11 07:53:56;;;;;;;;;;;;;;;9.90;35.95;92885.63;2058546;69;20429;-71
2022/04/11 07:56:22;;;;;;;;;;;;;;;9.93;35.48;92875.97;2058666;69;20046;-68
2022/04/11 07:58:47;;;;;;;;;;;;;;;10.54;34.75;92882.78;2058752;69;20122;-69
2022/04/11 08:01:16;;;;;;;;;;;;;;;10.81;33.54;92873.16;2058537;69;20050;-67
2022/04/11 08:03:44;;;;;;;;;;;;;;;10.49;34.73;92874.66;2058616;69;20046;-68
2022/04/11 08:06:10;;;;;;;;;;;;;;;11.27;31.05;92875.31;2058543;69;20125;-69
2022/04/11 08:08:36;;;;;;;;;;;;;;;10.56;32.35;92868.81;2057681;69;20062;-73
2022/04/11 08:11:01;;;;;;;;;;;;;;;10.93;30.33;92869.03;2058585;69;20046;-72
2022/04/11 08:13:27;;;;;;;;;;;;;;;10.90;31.63;92869.50;2058463;69;20119;-71
2022/04/11 08:15:52;;;;;;;;;;;;;;;10.63;30.38;92859.41;2058558;69;20484;-74
2022/04/11 08:18:18;;;;;;;;;;;;;;;12.53;31.09;92864.28;2057936;69;20081;-72
2022/04/11 08:20:43;;;;;;;;;;;;;;;12.46;28.81;92852.66;2058319;69;20475;-72
2022/04/11 08:23:08;;;;;;;;;;;;;;;11.62;30.76;92852.00;2058370;69;20117;-70
2022/04/11 08:25:34;;;;;;;;;;;;;;;11.91;27.61;92851.59;2058424;69;20042;-69
2022/04/11 08:27:59;;;;;;;;;;;;;;;13.54;26.40;92857.78;2058411;69;20054;-70
2022/04/11 08:30:25;;;;;;;;;;;;;;;12.41;27.31;92850.94;2058675;69;20566;-70
2022/04/11 08:32:51;;;;;;;;;;;;;;;12.78;27.11;92838.84;2058439;69;20473;-70
2022/04/11 08:35:21;;;;;;;;;;;;;;;12.82;25.08;92844.72;2058551;69;20050;-70
2022/04/11 08:37:46;;;;;;;;;;;;;;;13.66;25.49;92843.53;2058350;69;20057;-69
2022/04/11 08:40:13;;;;;;;;;;;;;;;13.29;26.76;92844.47;2058628;69;20054;-72
2022/04/11 08:42:40;;;;;;;;;;;;;;;14.39;25.26;92838.72;2058059;69;20076;-72
2022/04/11 08:45:05;;;;;;;;;;;;;;;14.81;26.50;92835.75;2058420;69;20101;-71
2022/04/11 08:47:31;;;;;;;;;;;;;;;15.00;24.91;92838.06;2058582;69;20046;-73
2022/04/11 08:49:57;;;;;;;;;;;;;;;15.03;26.05;92824.72;2058538;69;20050;-73
2022/04/11 08:52:24;;;;;;;;;;;;;;;15.39;25.98;92822.81;2058240;69;20394;-72
2022/04/11 08:54:49;;;;;;;;;;;;;;;15.04;23.91;92821.25;2058647;69;20073;-70
2022/04/11 08:57:15;;;;;;;;;;;;;;;14.86;23.88;92814.75;2058497;69;20049;-70
2022/04/11 08:59:40;;;;;;;;;;;;;;;16.07;24.03;92821.56;2058348;69;20052;-69
2022/04/11 09:02:09;;;;;;;;;;;;;;;16.22;24.63;92820.06;2058535;69;20116;-70
2022/04/11 09:04:49;;;;;;;;;;;;;;;16.00;22.69;92811.31;2058062;69;20165;-74
2022/04/11 09:07:14;;;;;;;;;;;;;;;16.59;23.48;92813.03;2058289;69;20097;-74
2022/04/11 09:09:40;;;;;;;;;;;;;;;16.43;23.22;92807.41;2058403;69;20409;-74
2022/04/11 09:12:05;;;;;;;;;;;;;;;15.77;23.73;92808.91;2058528;69;20053;-71
2022/04/11 09:14:32;;;;;;;;;;;;;;;16.84;24.71;92786.31;2058337;69;20042;-70
2022/04/11 09:16:58;;;;;;;;;;;;;;;16.95;22.32;92776.78;2058497;69;20156;-70
2022/04/11 09:19:24;;;;;;;;;;;;;;;17.38;24.04;92781.25;2058560;69;20137;-74
2022/04/11 09:21:54;;;;;;;;;;;;;;;16.91;22.94;92780.22;2058383;69;20054;-73
2022/04/11 09:24:20;;;;;;;;;;;;;;;17.52;23.44;92779.66;2058197;69;20074;-73
2022/04/11 09:26:47;;;;;;;;;;;;;;;17.60;22.21;92775.66;2058452;69;20057;-74
2022/04/11 09:29:13;;;;;;;;;;;;;;;18.43;22.65;92778.53;2058386;69;20050;-75
2022/04/11 09:31:38;;;;;;;;;;;;;;;18.47;21.14;92772.25;2058829;69;20120;-70
2022/04/11 09:34:16;;;;;;;;;;;;;;;18.08;20.86;92779.50;2058911;69;20046;-71
2022/04/11 09:36:52;;;;;;;;;;;;;;;18.03;18.12;92772.94;2058839;69;20054;-70
2022/04/11 09:39:25;;;;;;;;;;;;;;;17.28;20.88;92767.38;2058648;69;20121;-71
2022/04/11 09:41:51;;;;;;;;;;;;;;;16.33;19.27;92767.22;2058943;69;20061;-72
2022/04/11 09:44:23;;;;;;;;;;;;;;;16.67;18.97;92765.03;2058928;69;20474;-71
2022/04/11 09:46:52;;;;;;;;;;;;;;;16.74;19.36;92758.22;2058975;69;20050;-70
2022/04/11 09:49:18;;;;;;;;;;;;;;;18.36;19.84;92756.19;2058216;69;20054;-73
2022/04/11 09:52:02;;;;;;;;;;;;;;;17.34;19.11;92750.53;2058868;69;20050;-74
2022/04/11 09:54:29;;;;;;;;;;;;;;;18.77;18.89;92753.28;2058643;69;20050;-74
2022/04/11 09:56:54;;;;;;;;;;;;;;;19.09;20.03;92755.66;2058875;69;20050;-73
2022/04/11 09:59:23;;;;;;;;;;;;;;;19.43;19.89;92747.41;2058747;69;20183;-71
2022/04/11 10:01:50;;;;;;;;;;;;;;;19.37;18.63;92744.34;2058839;69;20566;-76
2022/04/11 10:04:17;;;;;;;;;;;;;;;19.35;18.10;92752.16;2058764;69;20058;-72
2022/04/11 10:06:43;;;;;;;;;;;;;;;19.79;19.42;92744.88;2058698;69;20506;-73
2022/04/11 10:09:09;;;;;;;;;;;;;;;20.62;17.93;92739.13;2058641;69;20058;-75
2022/04/11 10:11:34;;;;;;;;;;;;;;;20.50;17.76;92736.69;2058791;69;20057;-70
2022/04/11 10:14:00;;;;;;;;;;;;;;;19.76;16.42;92734.06;2058175;69;20062;-71
2022/04/11 10:16:26;;;;;;;;;;;;;;;20.34;18.29;92731.25;2056477;69;20061;-71
2022/04/11 10:18:52;;;;;;;;;;;;;;;20.43;17.22;92724.34;2058158;69;20046;-72
2022/04/11 10:21:18;;;;;;;;;;;;;;;20.09;17.35;92720.63;2058233;69;20069;-66
2022/04/11 10:23:46;;;;;;;;;;;;;;;19.64;18.99;92710.88;2058295;69;20159;-73
2022/04/11 10:26:13;;;;;;;;;;;;;;;20.05;15.83;92699.13;2058440;69;20418;-69
2022/04/11 10:28:45;;;;;;;;;;;;;;;19.62;15.75;92696.56;2058010;69;20066;-72
2022/04/11 10:31:11;;;;;;;;;;;;;;;20.53;16.51;92683.88;2058347;69;20159;-69
2022/04/11 10:33:42;;;;;;;;;;;;;;;20.31;16.02;92686.91;2058633;69;20160;-68
2022/04/11 10:36:29;;;;;;;;;;;;;;;22.30;17.52;92686.78;2058497;69;20144;-67
2022/04/11 10:39:14;;;;;;;;;;;;;;;21.69;16.72;92672.06;2057934;69;20058;-69
2022/04/11 10:41:55;;;;;;;;;;;;;;;21.16;16.14;92673.81;2058337;69;20082;-69
2022/04/11 10:44:35;;;;;;;;;;;;;;;21.50;14.24;92670.97;2058202;69;20047;-75
2022/04/11 10:47:07;;;;;;;;;;;;;;;21.90;16.23;92658.09;2058355;69;20073;-69
2022/04/11 10:49:53;;;;;;;;;;;;;;;23.74;14.35;92661.59;2058572;69;20502;-70
2022/04/11 10:52:34;;;;;;;;;;;;;;;23.91;15.04;92668.22;2056975;69;20046;-70
2022/04/11 10:55:19;;;;;;;;;;;;;;;26.07;14.50;92656.00;2058320;69;20166;-72
2022/04/11 10:57:55;;;;;;;;;;;;;;;27.17;13.34;92654.63;2057985;69;20470;-72
2022/04/11 11:00:21;;;;;;;;;;;;;;;26.39;13.03;92651.75;2057160;69;20074;-75
2022/04/11 11:03:01;;;;;;;;;;;;;;;27.18;13.04;92644.53;2059986;69;20096;-75
2022/04/11 11:05:39;;;;;;;;;;;;;;;30.30;11.82;92657.31;2058200;69;20429;-74
2022/04/11 11:08:14;;;;;;;;;;;;;;;32.07;11.36;92649.97;2057947;69;20509;-74
2022/04/11 11:10:55;;;;;;;;;;;;;;;33.09;9.49;92642.59;2058274;69;20149;-70
2022/04/11 11:13:27;;;;;;;;;;;;;;;34.63;9.62;92648.56;2056609;69;20098;-70
2022/04/11 11:15:53;;;;;;;;;;;;;;;34.32;7.89;92648.78;2057118;69;20066;-70
2022/04/11 11:18:19;;;;;;;;;;;;;;;32.06;9.47;92633.97;2058063;69;20085;-71
2022/04/11 11:20:51;;;;;;;;;;;;;;;34.57;8.55;92636.34;2057553;69;20108;-70
2022/04/11 11:23:20;;;;;;;;;;;;;;;35.82;8.73;92632.97;2057042;69;20046;-72
2022/04/11 11:25:46;;;;;;;;;;;;;;;34.07;8.16;92625.38;2058530;69;20566;-71
2022/04/11 11:28:13;;;;;;;;;;;;;;;37.40;7.60;92625.50;2057864;69;20445;-70
2022/04/11 11:30:38;;;;;;;;;;;;;;;35.35;8.76;92622.88;2057309;69;20088;-74
2022/04/11 11:33:07;;;;;;;;;;;;;;;38.54;8.14;92619.78;2058279;69;20056;-69
2022/04/11 11:35:32;;;;;;;;;;;;;;;38.46;8.09;92617.91;2058031;69;20053;-70
2022/04/11 11:38:04;;;;;;;;;;;;;;;38.95;7.69;92615.63;2058135;69;20058;-72
2022/04/11 11:40:30;;;;;;;;;;;;;;;39.33;7.74;92615.97;2058481;69;20124;-71
2022/04/11 11:42:56;;;;;;;;;;;;;;;40.33;7.82;92607.91;2058442;69;20062;-71
2022/04/11 11:45:26;;;;;;;;;;;;;;;37.96;7.98;92597.41;2058193;69;20062;-70
2022/04/11 11:47:52;;;;;;;;;;;;;;;38.89;8.14;92596.03;2058195;69;20049;-69
2022/04/11 11:50:18;;;;;;;;;;;;;;;39.94;7.70;92587.88;2058054;69;20178;-72
2022/04/11 11:52:55;;;;;;;;;;;;;;;39.57;8.38;92587.53;2056655;69;20501;-73
2022/04/11 11:55:21;;;;;;;;;;;;;;;38.94;7.93;92578.19;2057810;69;20062;-73
2022/04/11 11:57:46;;;;;;;;;;;;;;;39.71;7.18;92580.22;2057444;69;20046;-70
2022/04/11 12:00:12;;;;;;;;;;;;;;;36.56;8.83;92570.19;2058218;69;20513;-74
2022/04/11 12:05:28;;;;;;;;;;;;;;;39.86;6.75;92574.28;2057487;69;20043;-75
2022/04/11 12:08:13;;;;;;;;;;;;;;;35.27;7.15;92565.34;2056821;69;20054;-73
2022/04/11 12:10:39;;;;;;;;;;;;;;;37.94;6.75;92565.16;2056942;69;20240;-69
2022/04/11 12:13:05;;;;;;;;;;;;;;;37.18;6.96;92556.69;2058466;69;20046;-70
2022/04/11 12:15:31;;;;;;;;;;;;;;;38.04;6.71;92553.69;2056631;69;20442;-71
2022/04/11 12:18:02;;;;;;;;;;;;;;;36.81;7.25;92534.72;2055868;69;21446;-71
2022/04/11 12:20:29;;;;;;;;;;;;;;;37.64;7.66;92547.38;2055858;69;20517;-71
2022/04/11 12:23:03;;;;;;;;;;;;;;;38.75;7.04;92540.81;2057587;69;20488;-69
2022/04/11 12:25:30;;;;;;;;;;;;;;;35.65;7.12;92539.19;2057981;69;20058;-70
2022/04/11 12:28:28;;;;;;;;;;;;;;;34.87;8.87;92529.44;2057645;69;20121;-70
2022/04/11 12:31:02;;;;;;;;;;;;;;;34.72;7.83;92528.47;2047043;70;20091;-72
2022/04/11 12:33:44;;;;;;;;;;;;;;;36.27;8.65;92517.09;2044470;70;20102;-69
2022/04/11 12:36:13;;;;;;;;;;;;;;;37.56;7.50;92518.38;2046541;70;20051;-71
2022/04/11 12:38:39;;;;;;;;;;;;;;;37.88;7.93;92516.22;2047002;70;20226;-72
2022/04/11 12:41:05;;;;;;;;;;;;;;;39.65;7.23;92515.75;2046866;70;20233;-69
2022/04/11 12:43:30;;;;;;;;;;;;;;;35.86;7.37;92504.69;2047102;70;20547;-71
2022/04/11 12:46:05;;;;;;;;;;;;;;;35.38;8.18;92495.50;2047024;70;20063;-72
2022/04/11 12:48:51;;;;;;;;;;;;;;;37.27;7.23;92499.06;2047625;70;20062;-71
2022/04/11 12:51:36;;;;;;;;;;;;;;;36.10;6.97;92490.63;2047416;70;20051;-68
2022/04/11 12:54:21;;;;;;;;;;;;;;;38.24;8.41;92492.53;2046736;70;20116;-71
2022/04/11 12:56:49;;;;;;;;;;;;;;;36.62;8.79;92487.13;2046614;70;20126;-70
2022/04/11 12:59:35;;;;;;;;;;;;;;;39.14;7.82;92492.53;2047054;70;20146;-69
2022/04/11 13:02:09;;;;;;;;;;;;;;;39.79;7.63;92488.47;2046866;70;20058;-71